sensor_id;sensor_type;location;lat;lon;timestamp;temperature;humidity
55329;DHT22;41205;44.264;19.884;2023-02-04T00:01:24;205.40;2252.80
55329;DHT22;41205;44.264;19.884;2023-02-04T00:03:49;205.50;2252.80
55329;DHT22;41205;44.264;19.884;2023-02-04T00:06:16;205.60;2252.80
55329;DHT22;41205;44.264;19.884;2023-02-04T00:08:42;205.50;2252.80
55329;DHT22;41205;44.264;19.884;2023-02-04T00:11:08;205.60;2252.80
55329;DHT22;41205;44.264;19.884;2023-02-04T00:13:33;205.60;2252.80
55329;DHT22;41205;44.264;19.884;2023-02-04T00:15:59;205.50;2252.80
55329;DHT22;41205;44.264;19.884;2023-02-04T00:18:25;205.50;2252.80
55329;DHT22;41205;44.264;19.884;2023-02-04T00:20:50;205.60;2252.80
55329;DHT22;41205;44.264;19.884;2023-02-04T00:23:16;205.60;2252.80
55329;DHT22;41205;44.264;19.884;2023-02-04T00:25:42;205.70;2252.80
55329;DHT22;41205;44.264;19.884;2023-02-04T00:28:07;205.70;2252.80
55329;DHT22;41205;44.264;19.884;2023-02-04T00:30:33;205.60;2252.80
55329;DHT22;41205;44.264;19.884;2023-02-04T00:32:59;205.70;2252.80
55329;DHT22;41205;44.264;19.884;2023-02-04T00:35:24;205.60;2252.80
55329;DHT22;41205;44.264;19.884;2023-02-04T00:37:50;205.60;2252.80
55329;DHT22;41205;44.264;19.884;2023-02-04T00:40:16;205.60;2252.80
55329;DHT22;41205;44.264;19.884;2023-02-04T00:42:42;205.70;2252.80
55329;DHT22;41205;44.264;19.884;2023-02-04T00:45:09;230.40;2252.80
55329;DHT22;41205;44.264;19.884;2023-02-04T00:47:35;230.40;2252.80
55329;DHT22;41205;44.264;19.884;2023-02-04T00:50:01;230.40;2252.80
55329;DHT22;41205;44.264;19.884;2023-02-04T00:52:26;230.50;2252.80
55329;DHT22;41205;44.264;19.884;2023-02-04T00:54:52;230.40;2252.80
55329;DHT22;41205;44.264;19.884;2023-02-04T00:57:18;205.70;2252.80
55329;DHT22;41205;44.264;19.884;2023-02-04T00:59:44;205.70;2252.80
55329;DHT22;41205;44.264;19.884;2023-02-04T01:02:09;205.60;2252.80
55329;DHT22;41205;44.264;19.884;2023-02-04T01:04:35;205.50;2252.80
55329;DHT22;41205;44.264;19.884;2023-02-04T01:07:01;205.50;2252.80
55329;DHT22;41205;44.264;19.884;2023-02-04T01:09:27;205.50;2252.80
55329;DHT22;41205;44.264;19.884;2023-02-04T01:11:52;205.50;2252.80
55329;DHT22;41205;44.264;19.884;2023-02-04T01:14:18;205.40;2252.80
55329;DHT22;41205;44.264;19.884;2023-02-04T01:16:44;205.40;2252.80
55329;DHT22;41205;44.264;19.884;2023-02-04T01:19:10;205.30;2252.80
55329;DHT22;41205;44.264;19.884;2023-02-04T01:21:36;205.20;2252.80
55329;DHT22;41205;44.264;19.884;2023-02-04T01:24:05;205.10;2252.80
55329;DHT22;41205;44.264;19.884;2023-02-04T01:26:31;205.10;2252.80
55329;DHT22;41205;44.264;19.884;2023-02-04T01:28:57;205.10;2252.80
55329;DHT22;41205;44.264;19.884;2023-02-04T01:31:22;205.00;2252.80
55329;DHT22;41205;44.264;19.884;2023-02-04T01:33:48;205.00;2252.80
55329;DHT22;41205;44.264;19.884;2023-02-04T01:36:14;205.00;2252.80
55329;DHT22;41205;44.264;19.884;2023-02-04T01:38:46;204.90;2252.80
55329;DHT22;41205;44.264;19.884;2023-02-04T01:41:13;204.90;2252.80
55329;DHT22;41205;44.264;19.884;2023-02-04T01:43:39;204.90;2252.80
55329;DHT22;41205;44.264;19.884;2023-02-04T01:46:05;180.10;2252.80
55329;DHT22;41205;44.264;19.884;2023-02-04T01:48:31;180.10;2252.80
55329;DHT22;41205;44.264;19.884;2023-02-04T01:51:11;180.00;2252.80
55329;DHT22;41205;44.264;19.884;2023-02-04T01:53:39;180.00;2252.80
55329;DHT22;41205;44.264;19.884;2023-02-04T01:56:19;179.90;2252.80
55329;DHT22;41205;44.264;19.884;2023-02-04T01:58:46;179.90;2252.80
55329;DHT22;41205;44.264;19.884;2023-02-04T02:01:15;179.70;2252.80
55329;DHT22;41205;44.264;19.884;2023-02-04T02:03:56;179.80;2252.80
55329;DHT22;41205;44.264;19.884;2023-02-04T02:06:22;179.90;2252.80
55329;DHT22;41205;44.264;19.884;2023-02-04T02:08:48;179.80;2252.80
55329;DHT22;41205;44.264;19.884;2023-02-04T02:11:14;179.90;2252.80
55329;DHT22;41205;44.264;19.884;2023-02-04T02:13:39;179.90;2252.80
55329;DHT22;41205;44.264;19.884;2023-02-04T02:16:05;179.80;2252.80
55329;DHT22;41205;44.264;19.884;2023-02-04T02:18:31;179.90;2252.80
55329;DHT22;41205;44.264;19.884;2023-02-04T02:20:59;179.90;2252.80
55329;DHT22;41205;44.264;19.884;2023-02-04T02:26:14;179.80;2252.80
55329;DHT22;41205;44.264;19.884;2023-02-04T02:28:41;179.80;2252.80
55329;DHT22;41205;44.264;19.884;2023-02-04T02:31:07;179.90;2252.80
55329;DHT22;41205;44.264;19.884;2023-02-04T02:33:33;179.80;2252.80
55329;DHT22;41205;44.264;19.884;2023-02-04T02:35:59;179.80;2252.80
55329;DHT22;41205;44.264;19.884;2023-02-04T02:38:25;179.80;2252.80
55329;DHT22;41205;44.264;19.884;2023-02-04T02:40:51;179.80;2252.80
55329;DHT22;41205;44.264;19.884;2023-02-04T02:43:21;180.00;2252.80
55329;DHT22;41205;44.264;19.884;2023-02-04T02:45:48;180.00;2252.80
55329;DHT22;41205;44.264;19.884;2023-02-04T02:48:14;179.90;2252.80
55329;DHT22;41205;44.264;19.884;2023-02-04T02:50:41;179.80;2252.80
55329;DHT22;41205;44.264;19.884;2023-02-04T02:53:15;179.80;2252.80
55329;DHT22;41205;44.264;19.884;2023-02-04T02:55:42;179.90;2252.80
55329;DHT22;41205;44.264;19.884;2023-02-04T02:58:20;179.90;2252.80
55329;DHT22;41205;44.264;19.884;2023-02-04T03:00:46;179.80;2252.80
55329;DHT22;41205;44.264;19.884;2023-02-04T03:03:20;179.80;2252.80
55329;DHT22;41205;44.264;19.884;2023-02-04T03:05:51;179.80;2252.80
55329;DHT22;41205;44.264;19.884;2023-02-04T03:08:19;180.00;2252.80
55329;DHT22;41205;44.264;19.884;2023-02-04T03:10:45;180.00;2252.80
55329;DHT22;41205;44.264;19.884;2023-02-04T03:13:13;180.10;2252.80
55329;DHT22;41205;44.264;19.884;2023-02-04T03:15:40;204.90;2252.80
55329;DHT22;41205;44.264;19.884;2023-02-04T03:18:07;204.80;2252.80
55329;DHT22;41205;44.264;19.884;2023-02-04T03:20:33;180.10;2252.80
55329;DHT22;41205;44.264;19.884;2023-02-04T03:23:00;180.10;2252.80
55329;DHT22;41205;44.264;19.884;2023-02-04T03:25:26;180.10;2252.80
55329;DHT22;41205;44.264;19.884;2023-02-04T03:27:53;180.10;2252.80
55329;DHT22;41205;44.264;19.884;2023-02-04T03:30:20;204.80;2252.80
55329;DHT22;41205;44.264;19.884;2023-02-04T03:32:46;204.90;2252.80
55329;DHT22;41205;44.264;19.884;2023-02-04T03:35:12;204.80;2252.80
55329;DHT22;41205;44.264;19.884;2023-02-04T03:37:38;204.80;2252.80
55329;DHT22;41205;44.264;19.884;2023-02-04T03:40:04;204.80;2252.80
55329;DHT22;41205;44.264;19.884;2023-02-04T03:42:30;204.80;2252.80
55329;DHT22;41205;44.264;19.884;2023-02-04T03:44:56;180.10;2252.80
55329;DHT22;41205;44.264;19.884;2023-02-04T03:47:21;180.10;2252.80
55329;DHT22;41205;44.264;19.884;2023-02-04T03:49:47;204.80;2252.80
55329;DHT22;41205;44.264;19.884;2023-02-04T03:52:13;204.80;2252.80
55329;DHT22;41205;44.264;19.884;2023-02-04T03:54:38;204.80;2252.80
55329;DHT22;41205;44.264;19.884;2023-02-04T03:57:04;204.80;2252.80
55329;DHT22;41205;44.264;19.884;2023-02-04T03:59:29;204.80;2252.80
55329;DHT22;41205;44.264;19.884;2023-02-04T04:01:55;204.80;2252.80
55329;DHT22;41205;44.264;19.884;2023-02-04T04:04:21;204.90;2252.80
55329;DHT22;41205;44.264;19.884;2023-02-04T04:06:47;204.90;2252.80
55329;DHT22;41205;44.264;19.884;2023-02-04T04:09:12;204.80;2252.80
55329;DHT22;41205;44.264;19.884;2023-02-04T04:11:38;204.90;2252.80
55329;DHT22;41205;44.264;19.884;2023-02-04T04:14:04;205.00;2252.80
55329;DHT22;41205;44.264;19.884;2023-02-04T04:16:29;204.90;2252.80
55329;DHT22;41205;44.264;19.884;2023-02-04T04:18:55;204.90;2252.80
55329;DHT22;41205;44.264;19.884;2023-02-04T04:21:21;204.90;2252.80
55329;DHT22;41205;44.264;19.884;2023-02-04T04:23:46;204.80;2252.80
55329;DHT22;41205;44.264;19.884;2023-02-04T04:26:12;204.80;2252.80
55329;DHT22;41205;44.264;19.884;2023-02-04T04:28:38;204.90;2252.80
55329;DHT22;41205;44.264;19.884;2023-02-04T04:31:04;204.80;2252.80
55329;DHT22;41205;44.264;19.884;2023-02-04T04:33:29;180.10;2252.80
55329;DHT22;41205;44.264;19.884;2023-02-04T04:35:55;180.00;2252.80
55329;DHT22;41205;44.264;19.884;2023-02-04T04:38:21;179.90;2252.80
55329;DHT22;41205;44.264;19.884;2023-02-04T04:40:47;179.90;2252.80
55329;DHT22;41205;44.264;19.884;2023-02-04T04:43:12;180.00;2252.80
55329;DHT22;41205;44.264;19.884;2023-02-04T04:45:38;179.90;2252.80
55329;DHT22;41205;44.264;19.884;2023-02-04T04:48:04;179.80;2252.80
55329;DHT22;41205;44.264;19.884;2023-02-04T04:50:29;179.80;2252.80
55329;DHT22;41205;44.264;19.884;2023-02-04T04:52:55;179.80;2252.80
55329;DHT22;41205;44.264;19.884;2023-02-04T04:55:21;179.80;2252.80
55329;DHT22;41205;44.264;19.884;2023-02-04T04:57:46;179.80;2252.80
55329;DHT22;41205;44.264;19.884;2023-02-04T05:00:17;180.00;2252.80
55329;DHT22;41205;44.264;19.884;2023-02-04T05:02:43;179.90;2252.80
55329;DHT22;41205;44.264;19.884;2023-02-04T05:05:09;179.90;2252.80
55329;DHT22;41205;44.264;19.884;2023-02-04T05:07:35;179.80;2252.80
55329;DHT22;41205;44.264;19.884;2023-02-04T05:10:02;179.70;2252.80
55329;DHT22;41205;44.264;19.884;2023-02-04T05:12:28;179.90;2252.80
55329;DHT22;41205;44.264;19.884;2023-02-04T05:14:54;179.80;2252.80
55329;DHT22;41205;44.264;19.884;2023-02-04T05:17:20;179.90;2252.80
55329;DHT22;41205;44.264;19.884;2023-02-04T05:19:45;179.90;2252.80
55329;DHT22;41205;44.264;19.884;2023-02-04T05:22:11;179.80;2252.80
55329;DHT22;41205;44.264;19.884;2023-02-04T05:24:37;179.70;2252.80
55329;DHT22;41205;44.264;19.884;2023-02-04T05:27:02;179.70;2252.80
55329;DHT22;41205;44.264;19.884;2023-02-04T05:29:28;179.90;2252.80
55329;DHT22;41205;44.264;19.884;2023-02-04T05:31:54;179.80;2252.80
55329;DHT22;41205;44.264;19.884;2023-02-04T05:34:20;179.70;2252.80
55329;DHT22;41205;44.264;19.884;2023-02-04T05:36:45;179.80;2252.80
55329;DHT22;41205;44.264;19.884;2023-02-04T05:39:11;179.90;2252.80
55329;DHT22;41205;44.264;19.884;2023-02-04T05:41:37;179.70;2252.80
55329;DHT22;41205;44.264;19.884;2023-02-04T05:44:02;179.60;2252.80
55329;DHT22;41205;44.264;19.884;2023-02-04T05:46:28;179.50;2252.80
55329;DHT22;41205;44.264;19.884;2023-02-04T05:48:54;179.60;2252.80
55329;DHT22;41205;44.264;19.884;2023-02-04T05:51:19;179.60;2252.80
55329;DHT22;41205;44.264;19.884;2023-02-04T05:53:45;179.60;2252.80
55329;DHT22;41205;44.264;19.884;2023-02-04T05:56:11;179.60;2252.80
55329;DHT22;41205;44.264;19.884;2023-02-04T05:58:36;179.70;2252.80
55329;DHT22;41205;44.264;19.884;2023-02-04T06:01:02;179.60;2252.80
55329;DHT22;41205;44.264;19.884;2023-02-04T06:03:29;179.70;2252.80
55329;DHT22;41205;44.264;19.884;2023-02-04T06:05:56;179.70;2252.80
55329;DHT22;41205;44.264;19.884;2023-02-04T06:08:21;179.70;2252.80
55329;DHT22;41205;44.264;19.884;2023-02-04T06:10:47;179.60;2252.80
55329;DHT22;41205;44.264;19.884;2023-02-04T06:13:13;179.60;2252.80
55329;DHT22;41205;44.264;19.884;2023-02-04T06:15:39;179.70;2252.80
55329;DHT22;41205;44.264;19.884;2023-02-04T06:18:05;179.70;2252.80
55329;DHT22;41205;44.264;19.884;2023-02-04T06:20:31;179.70;2252.80
55329;DHT22;41205;44.264;19.884;2023-02-04T06:22:57;179.60;2252.80
55329;DHT22;41205;44.264;19.884;2023-02-04T06:25:23;179.60;2252.80
55329;DHT22;41205;44.264;19.884;2023-02-04T06:27:49;179.70;2252.80
55329;DHT22;41205;44.264;19.884;2023-02-04T06:30:15;179.70;2252.80
55329;DHT22;41205;44.264;19.884;2023-02-04T06:32:41;179.70;2252.80
55329;DHT22;41205;44.264;19.884;2023-02-04T06:35:07;179.70;2252.80
55329;DHT22;41205;44.264;19.884;2023-02-04T06:37:33;179.70;2252.80
55329;DHT22;41205;44.264;19.884;2023-02-04T06:39:59;179.50;2252.80
55329;DHT22;41205;44.264;19.884;2023-02-04T06:42:25;179.50;2252.80
55329;DHT22;41205;44.264;19.884;2023-02-04T06:44:51;179.40;2252.80
55329;DHT22;41205;44.264;19.884;2023-02-04T06:47:17;179.50;2252.80
55329;DHT22;41205;44.264;19.884;2023-02-04T06:49:44;179.40;2252.80
55329;DHT22;41205;44.264;19.884;2023-02-04T06:52:09;179.40;2252.80
55329;DHT22;41205;44.264;19.884;2023-02-04T06:54:36;179.40;2252.80
55329;DHT22;41205;44.264;19.884;2023-02-04T06:57:01;179.40;2252.80
55329;DHT22;41205;44.264;19.884;2023-02-04T06:59:34;154.50;2252.80
55329;DHT22;41205;44.264;19.884;2023-02-04T07:02:01;179.20;2252.80
55329;DHT22;41205;44.264;19.884;2023-02-04T07:04:26;154.50;2252.80
55329;DHT22;41205;44.264;19.884;2023-02-04T07:06:52;179.20;2252.80
55329;DHT22;41205;44.264;19.884;2023-02-04T07:09:18;179.20;2252.80
55329;DHT22;41205;44.264;19.884;2023-02-04T07:11:44;154.50;2252.80
55329;DHT22;41205;44.264;19.884;2023-02-04T07:14:09;154.50;2252.80
55329;DHT22;41205;44.264;19.884;2023-02-04T07:16:35;154.50;2252.80
55329;DHT22;41205;44.264;19.884;2023-02-04T07:19:01;154.50;2252.80
55329;DHT22;41205;44.264;19.884;2023-02-04T07:21:27;154.40;2252.80
55329;DHT22;41205;44.264;19.884;2023-02-04T07:23:53;154.50;2252.80
55329;DHT22;41205;44.264;19.884;2023-02-04T07:26:18;154.50;2252.80
55329;DHT22;41205;44.264;19.884;2023-02-04T07:28:44;154.50;2252.80
55329;DHT22;41205;44.264;19.884;2023-02-04T07:31:10;154.50;2252.80
55329;DHT22;41205;44.264;19.884;2023-02-04T07:33:35;154.50;2252.80
55329;DHT22;41205;44.264;19.884;2023-02-04T07:36:01;179.20;2252.80
55329;DHT22;41205;44.264;19.884;2023-02-04T07:38:27;179.20;2252.80
55329;DHT22;41205;44.264;19.884;2023-02-04T07:40:53;179.30;2252.80
55329;DHT22;41205;44.264;19.884;2023-02-04T07:43:18;179.20;2252.80
55329;DHT22;41205;44.264;19.884;2023-02-04T07:45:44;154.50;2252.80
55329;DHT22;41205;44.264;19.884;2023-02-04T07:48:10;154.50;2252.80
55329;DHT22;41205;44.264;19.884;2023-02-04T07:50:36;154.50;2252.80
55329;DHT22;41205;44.264;19.884;2023-02-04T07:53:02;154.40;2252.80
55329;DHT22;41205;44.264;19.884;2023-02-04T07:55:28;154.40;2252.80
55329;DHT22;41205;44.264;19.884;2023-02-04T07:57:54;154.40;2252.80
55329;DHT22;41205;44.264;19.884;2023-02-04T08:00:20;154.40;2252.80
55329;DHT22;41205;44.264;19.884;2023-02-04T08:02:45;154.40;2252.80
55329;DHT22;41205;44.264;19.884;2023-02-04T08:05:11;154.50;2252.80
55329;DHT22;41205;44.264;19.884;2023-02-04T08:07:37;154.50;2252.80
55329;DHT22;41205;44.264;19.884;2023-02-04T08:10:05;179.20;2252.80
55329;DHT22;41205;44.264;19.884;2023-02-04T08:12:31;179.30;2252.80
55329;DHT22;41205;44.264;19.884;2023-02-04T08:14:57;179.30;2252.80
55329;DHT22;41205;44.264;19.884;2023-02-04T08:17:23;179.20;2252.80
55329;DHT22;41205;44.264;19.884;2023-02-04T08:19:49;179.20;2252.80
55329;DHT22;41205;44.264;19.884;2023-02-04T08:22:15;179.30;2252.80
55329;DHT22;41205;44.264;19.884;2023-02-04T08:24:40;179.40;2252.80
55329;DHT22;41205;44.264;19.884;2023-02-04T08:27:06;179.60;2252.80
55329;DHT22;41205;44.264;19.884;2023-02-04T08:29:32;179.60;2252.80
55329;DHT22;41205;44.264;19.884;2023-02-04T08:31:58;179.80;2252.80
55329;DHT22;41205;44.264;19.884;2023-02-04T08:34:23;179.90;2252.80
55329;DHT22;41205;44.264;19.884;2023-02-04T08:36:49;180.00;2252.80
55329;DHT22;41205;44.264;19.884;2023-02-04T08:39:15;180.00;2252.80
55329;DHT22;41205;44.264;19.884;2023-02-04T08:41:40;204.80;2252.80
55329;DHT22;41205;44.264;19.884;2023-02-04T08:44:06;205.70;2252.80
55329;DHT22;41205;44.264;19.884;2023-02-04T08:46:32;256.50;2252.80
55329;DHT22;41205;44.264;19.884;2023-02-04T08:48:57;256.80;2252.80
55329;DHT22;41205;44.264;19.884;2023-02-04T08:51:23;256.70;2252.80
55329;DHT22;41205;44.264;19.884;2023-02-04T08:53:49;282.20;2278.40
55329;DHT22;41205;44.264;19.884;2023-02-04T08:56:14;281.80;2278.40
55329;DHT22;41205;44.264;19.884;2023-02-04T08:58:43;256.70;2252.80
55329;DHT22;41205;44.264;19.884;2023-02-04T09:01:09;231.30;2252.80
55329;DHT22;41205;44.264;19.884;2023-02-04T09:03:36;231.10;2252.80
55329;DHT22;41205;44.264;19.884;2023-02-04T09:06:02;256.30;2252.80
55329;DHT22;41205;44.264;19.884;2023-02-04T09:08:28;256.60;2252.80
55329;DHT22;41205;44.264;19.884;2023-02-04T09:10:54;281.70;2278.40
55329;DHT22;41205;44.264;19.884;2023-02-04T09:13:19;256.40;2252.80
55329;DHT22;41205;44.264;19.884;2023-02-04T09:15:45;256.00;2252.80
55329;DHT22;41205;44.264;19.884;2023-02-04T09:18:11;231.20;2252.80
55329;DHT22;41205;44.264;19.884;2023-02-04T09:20:44;231.00;2252.80
55329;DHT22;41205;44.264;19.884;2023-02-04T09:23:11;230.80;2252.80
55329;DHT22;41205;44.264;19.884;2023-02-04T09:25:41;230.90;2252.80
55329;DHT22;41205;44.264;19.884;2023-02-04T09:28:08;230.80;2252.80
55329;DHT22;41205;44.264;19.884;2023-02-04T09:30:38;230.80;2252.80
55329;DHT22;41205;44.264;19.884;2023-02-04T09:33:04;231.10;2252.80
55329;DHT22;41205;44.264;19.884;2023-02-04T09:35:30;231.20;2252.80
55329;DHT22;41205;44.264;19.884;2023-02-04T09:37:55;230.90;2252.80
55329;DHT22;41205;44.264;19.884;2023-02-04T09:40:21;230.60;2252.80
55329;DHT22;41205;44.264;19.884;2023-02-04T09:42:49;230.40;2252.80
55329;DHT22;41205;44.264;19.884;2023-02-04T09:45:31;205.60;2252.80
55329;DHT22;41205;44.264;19.884;2023-02-04T09:47:58;205.40;2252.80
55329;DHT22;41205;44.264;19.884;2023-02-04T09:50:26;205.20;2252.80
55329;DHT22;41205;44.264;19.884;2023-02-04T09:52:56;180.00;2252.80
55329;DHT22;41205;44.264;19.884;2023-02-04T09:55:27;179.40;2252.80
55329;DHT22;41205;44.264;19.884;2023-02-04T09:57:54;154.40;2252.80
55329;DHT22;41205;44.264;19.884;2023-02-04T10:00:22;154.30;2252.80
55329;DHT22;41205;44.264;19.884;2023-02-04T10:02:48;154.50;2252.80
55329;DHT22;41205;44.264;19.884;2023-02-04T10:05:34;154.50;2252.80
55329;DHT22;41205;44.264;19.884;2023-02-04T10:08:03;154.50;2252.80
55329;DHT22;41205;44.264;19.884;2023-02-04T10:10:30;154.50;2252.80
55329;DHT22;41205;44.264;19.884;2023-02-04T10:13:01;154.40;2252.80
55329;DHT22;41205;44.264;19.884;2023-02-04T10:15:28;154.40;2252.80
55329;DHT22;41205;44.264;19.884;2023-02-04T10:17:57;154.50;2252.80
55329;DHT22;41205;44.264;19.884;2023-02-04T10:20:26;179.20;2252.80
55329;DHT22;41205;44.264;19.884;2023-02-04T10:22:53;179.30;2252.80
55329;DHT22;41205;44.264;19.884;2023-02-04T10:25:22;179.20;2252.80
55329;DHT22;41205;44.264;19.884;2023-02-04T10:27:52;179.20;2252.80
55329;DHT22;41205;44.264;19.884;2023-02-04T10:30:21;179.60;2252.80
55329;DHT22;41205;44.264;19.884;2023-02-04T10:32:47;179.50;2252.80
55329;DHT22;41205;44.264;19.884;2023-02-04T10:35:15;179.80;2252.80
55329;DHT22;41205;44.264;19.884;2023-02-04T10:37:41;205.10;2252.80
55329;DHT22;41205;44.264;19.884;2023-02-04T10:40:25;205.20;2252.80
55329;DHT22;41205;44.264;19.884;2023-02-04T10:42:51;204.90;2252.80
55329;DHT22;41205;44.264;19.884;2023-02-04T10:45:27;180.10;2252.80
55329;DHT22;41205;44.264;19.884;2023-02-04T10:47:54;179.80;2252.80
55329;DHT22;41205;44.264;19.884;2023-02-04T10:50:25;179.70;2252.80
55329;DHT22;41205;44.264;19.884;2023-02-04T10:52:55;179.60;2252.80
55329;DHT22;41205;44.264;19.884;2023-02-04T10:55:43;179.40;2252.80
55329;DHT22;41205;44.264;19.884;2023-02-04T10:58:11;179.20;2252.80
55329;DHT22;41205;44.264;19.884;2023-02-04T11:00:38;179.20;2252.80
55329;DHT22;41205;44.264;19.884;2023-02-04T11:03:17;179.30;2252.80
55329;DHT22;41205;44.264;19.884;2023-02-04T11:05:44;179.30;2252.80
55329;DHT22;41205;44.264;19.884;2023-02-04T11:08:35;179.30;2252.80
55329;DHT22;41205;44.264;19.884;2023-02-04T11:11:04;179.30;2252.80
55329;DHT22;41205;44.264;19.884;2023-02-04T11:18:50;154.50;2252.80
55329;DHT22;41205;44.264;19.884;2023-02-04T11:26:41;154.20;2252.80
55329;DHT22;41205;44.264;19.884;2023-02-04T11:41:53;153.90;2252.80
55329;DHT22;41205;44.264;19.884;2023-02-04T11:44:19;154.00;2252.80
55329;DHT22;41205;44.264;19.884;2023-02-04T11:46:51;154.00;2252.80
55329;DHT22;41205;44.264;19.884;2023-02-04T11:49:19;154.00;2252.80
55329;DHT22;41205;44.264;19.884;2023-02-04T11:51:46;154.00;2252.80
55329;DHT22;41205;44.264;19.884;2023-02-04T11:54:13;153.80;2252.80
55329;DHT22;41205;44.264;19.884;2023-02-04T11:56:41;153.80;2252.80
55329;DHT22;41205;44.264;19.884;2023-02-04T11:59:09;153.60;2252.80
55329;DHT22;41205;44.264;19.884;2023-02-04T12:01:36;153.60;2252.80
55329;DHT22;41205;44.264;19.884;2023-02-04T12:04:05;128.90;2252.80
55329;DHT22;41205;44.264;19.884;2023-02-04T12:06:35;128.80;2252.80
55329;DHT22;41205;44.264;19.884;2023-02-04T12:14:17;128.40;2252.80
55329;DHT22;41205;44.264;19.884;2023-02-04T12:16:48;128.30;2252.80
55329;DHT22;41205;44.264;19.884;2023-02-04T12:19:17;128.30;2252.80
55329;DHT22;41205;44.264;19.884;2023-02-04T12:21:43;128.20;2252.80
55329;DHT22;41205;44.264;19.884;2023-02-04T12:24:10;128.10;2252.80
55329;DHT22;41205;44.264;19.884;2023-02-04T12:26:35;128.10;2252.80
55329;DHT22;41205;44.264;19.884;2023-02-04T12:29:01;128.10;2252.80
55329;DHT22;41205;44.264;19.884;2023-02-04T12:31:31;128.10;2252.80
55329;DHT22;41205;44.264;19.884;2023-02-04T12:33:58;128.10;2252.80
55329;DHT22;41205;44.264;19.884;2023-02-04T12:36:24;128.10;2252.80
55329;DHT22;41205;44.264;19.884;2023-02-04T12:38:52;128.10;2252.80
55329;DHT22;41205;44.264;19.884;2023-02-04T12:41:18;128.10;2252.80
55329;DHT22;41205;44.264;19.884;2023-02-04T12:43:44;103.30;2227.20
55329;DHT22;41205;44.264;19.884;2023-02-04T12:46:10;103.30;2227.20
55329;DHT22;41205;44.264;19.884;2023-02-04T12:48:36;102.90;2227.20
55329;DHT22;41205;44.264;19.884;2023-02-04T12:51:05;103.30;2227.20
55329;DHT22;41205;44.264;19.884;2023-02-04T12:53:31;103.20;2227.20
55329;DHT22;41205;44.264;19.884;2023-02-04T12:55:57;103.30;2227.20
55329;DHT22;41205;44.264;19.884;2023-02-04T12:58:22;103.20;2227.20
55329;DHT22;41205;44.264;19.884;2023-02-04T13:00:48;103.10;2227.20
55329;DHT22;41205;44.264;19.884;2023-02-04T13:03:14;103.10;2227.20
55329;DHT22;41205;44.264;19.884;2023-02-04T13:05:40;103.00;2227.20
55329;DHT22;41205;44.264;19.884;2023-02-04T13:08:05;103.10;2227.20
55329;DHT22;41205;44.264;19.884;2023-02-04T13:10:31;103.10;2227.20
55329;DHT22;41205;44.264;19.884;2023-02-04T13:12:56;103.00;2227.20
55329;DHT22;41205;44.264;19.884;2023-02-04T13:15:22;103.00;2227.20
55329;DHT22;41205;44.264;19.884;2023-02-04T13:17:48;102.90;2227.20
55329;DHT22;41205;44.264;19.884;2023-02-04T13:27:33;102.80;2227.20
55329;DHT22;41205;44.264;19.884;2023-02-04T13:29:59;102.80;2227.20
55329;DHT22;41205;44.264;19.884;2023-02-04T13:32:25;102.70;2227.20
55329;DHT22;41205;44.264;19.884;2023-02-04T14:04:03;77.70;2227.20
55329;DHT22;41205;44.264;19.884;2023-02-04T14:09:02;77.50;2227.20
55329;DHT22;41205;44.264;19.884;2023-02-04T14:16:20;77.10;2227.20
55329;DHT22;41205;44.264;19.884;2023-02-04T14:18:46;77.00;2227.20
55329;DHT22;41205;44.264;19.884;2023-02-04T14:21:11;76.90;2227.20
55329;DHT22;41205;44.264;19.884;2023-02-04T14:23:37;77.00;2227.20
55329;DHT22;41205;44.264;19.884;2023-02-04T14:26:03;77.00;2227.20
55329;DHT22;41205;44.264;19.884;2023-02-04T14:28:29;77.10;2227.20
55329;DHT22;41205;44.264;19.884;2023-02-04T14:30:54;77.20;2227.20
55329;DHT22;41205;44.264;19.884;2023-02-04T14:33:21;77.00;2227.20
55329;DHT22;41205;44.264;19.884;2023-02-04T14:35:46;77.00;2227.20
55329;DHT22;41205;44.264;19.884;2023-02-04T14:38:13;77.10;2227.20
55329;DHT22;41205;44.264;19.884;2023-02-04T14:40:41;77.00;2227.20
55329;DHT22;41205;44.264;19.884;2023-02-04T14:43:07;77.10;2227.20
55329;DHT22;41205;44.264;19.884;2023-02-04T14:45:33;77.10;2227.20
55329;DHT22;41205;44.264;19.884;2023-02-04T14:47:58;77.10;2227.20
55329;DHT22;41205;44.264;19.884;2023-02-04T14:50:26;77.10;2227.20
55329;DHT22;41205;44.264;19.884;2023-02-04T14:52:53;76.90;2227.20
55329;DHT22;41205;44.264;19.884;2023-02-04T14:55:21;76.90;2227.20
55329;DHT22;41205;44.264;19.884;2023-02-04T14:57:47;76.90;2227.20
55329;DHT22;41205;44.264;19.884;2023-02-04T15:00:13;76.90;2227.20
55329;DHT22;41205;44.264;19.884;2023-02-04T15:02:39;76.90;2022.40
55329;DHT22;41205;44.264;19.884;2023-02-04T15:05:05;76.90;2227.20
55329;DHT22;41205;44.264;19.884;2023-02-04T15:10:53;76.90;2227.20
55329;DHT22;41205;44.264;19.884;2023-02-04T15:13:18;76.90;2227.20
55329;DHT22;41205;44.264;19.884;2023-02-04T15:15:44;77.00;2227.20
55329;DHT22;41205;44.264;19.884;2023-02-04T15:18:10;76.80;2227.20
55329;DHT22;41205;44.264;19.884;2023-02-04T15:20:35;76.80;2227.20
55329;DHT22;41205;44.264;19.884;2023-02-04T15:26:23;52.10;2227.20
55329;DHT22;41205;44.264;19.884;2023-02-04T15:28:49;52.10;2227.20
55329;DHT22;41205;44.264;19.884;2023-02-04T15:31:15;52.10;2227.20
55329;DHT22;41205;44.264;19.884;2023-02-04T15:33:41;52.10;2227.20
55329;DHT22;41205;44.264;19.884;2023-02-04T15:36:07;52.10;2227.20
55329;DHT22;41205;44.264;19.884;2023-02-04T15:38:33;52.10;2227.20
55329;DHT22;41205;44.264;19.884;2023-02-04T15:40:59;52.10;2227.20
55329;DHT22;41205;44.264;19.884;2023-02-04T15:43:24;76.80;2227.20
55329;DHT22;41205;44.264;19.884;2023-02-04T15:45:50;52.10;2227.20
55329;DHT22;41205;44.264;19.884;2023-02-04T15:48:16;76.80;2227.20
55329;DHT22;41205;44.264;19.884;2023-02-04T15:50:44;76.90;2227.20
55329;DHT22;41205;44.264;19.884;2023-02-04T15:53:09;77.00;2227.20
55329;DHT22;41205;44.264;19.884;2023-02-04T15:55:35;77.00;2227.20